createdAt,value
2022-10-11T00:03:24.308Z,10.30
2022-10-11T00:08:26.134Z,10.30
2022-10-11T00:13:28.875Z,10.30
2022-10-11T00:18:30.706Z,10.30
2022-10-11T00:23:33.309Z,10.20
2022-10-11T00:28:36.279Z,10.20
2022-10-11T00:33:38.208Z,10.10
2022-10-11T00:38:40.090Z,10.00
2022-10-11T00:43:42.610Z,9.90
2022-10-11T00:49:15.820Z,9.90
2022-10-11T00:54:22.406Z,10.00
2022-10-11T00:59:29.453Z,9.90
2022-10-11T01:04:31.237Z,10.00
2022-10-11T01:09:33.761Z,10.00
2022-10-11T01:14:56.764Z,10.00
2022-10-11T01:20:13.750Z,10.10
2022-10-11T01:25:24.617Z,10.10
2022-10-11T01:30:34.432Z,10.20
2022-10-11T01:35:52.306Z,10.20
2022-10-11T01:41:04.074Z,10.20
2022-10-11T01:46:09.482Z,10.20
2022-10-11T01:51:11.273Z,10.30
2022-10-11T01:56:22.362Z,10.40
2022-10-11T02:01:43.796Z,10.40
2022-10-11T02:07:07.366Z,10.60
2022-10-11T02:12:23.474Z,10.60
2022-10-11T02:17:31.217Z,10.70
2022-10-11T02:22:38.405Z,10.70
2022-10-11T02:27:41.624Z,10.70
2022-10-11T02:32:46.431Z,10.70
2022-10-11T02:38:05.629Z,10.80
2022-10-11T02:43:19.533Z,10.80
2022-10-11T02:48:21.504Z,10.90
2022-10-11T02:53:24.425Z,10.90
2022-10-11T02:58:26.280Z,10.90
2022-10-11T03:03:28.107Z,10.90
2022-10-11T03:08:30.266Z,11.00
2022-10-11T03:13:32.030Z,11.10
2022-10-11T03:18:34.038Z,11.20
2022-10-11T03:23:36.008Z,11.10
2022-10-11T03:28:37.856Z,11.10
2022-10-11T03:33:39.798Z,11.10
2022-10-11T03:38:41.778Z,11.10
2022-10-11T03:43:44.214Z,11.10
2022-10-11T03:48:45.992Z,11.10
2022-10-11T03:53:47.813Z,11.20
2022-10-11T03:58:49.601Z,11.10
2022-10-11T04:03:54.590Z,11.20
2022-10-11T04:08:56.366Z,11.20
2022-10-11T04:13:58.363Z,11.20
2022-10-11T04:19:00.177Z,11.20
2022-10-11T04:24:02.037Z,11.30
2022-10-11T04:29:04.502Z,11.30
2022-10-11T04:34:06.290Z,11.40
2022-10-11T04:39:08.211Z,11.50
2022-10-11T04:44:10.038Z,11.50
2022-10-11T04:49:11.944Z,11.50
2022-10-11T04:54:13.845Z,11.50
2022-10-11T04:59:15.711Z,11.50
2022-10-11T05:04:17.465Z,11.50
2022-10-11T05:09:19.303Z,11.50
2022-10-11T05:14:21.118Z,11.50
2022-10-11T05:19:23.018Z,11.50
2022-10-11T05:24:24.805Z,11.40
2022-10-11T05:29:27.036Z,11.50
2022-10-11T05:34:28.861Z,11.50
2022-10-11T05:39:30.757Z,11.40
2022-10-11T05:44:32.565Z,11.50
2022-10-11T05:49:34.347Z,11.50
2022-10-11T05:54:36.226Z,11.50
2022-10-11T05:59:38.084Z,11.50
2022-10-11T06:04:40.155Z,11.50
2022-10-11T06:09:41.953Z,11.50
2022-10-11T06:14:44.571Z,11.50
2022-10-11T06:19:46.410Z,11.50
2022-10-11T06:24:48.231Z,11.50
2022-10-11T06:29:50.032Z,11.60
2022-10-11T06:34:51.861Z,11.50
2022-10-11T06:39:53.724Z,11.60
2022-10-11T06:44:55.539Z,11.60
2022-10-11T06:49:57.430Z,11.70
2022-10-11T06:54:59.225Z,11.70
2022-10-11T07:00:01.050Z,11.70
2022-10-11T07:05:02.865Z,11.80
2022-10-11T07:10:05.050Z,11.90
2022-10-11T07:15:07.377Z,11.90
2022-10-11T07:20:09.898Z,12.10
2022-10-11T07:25:11.685Z,12.30
2022-10-11T07:30:13.545Z,12.50
2022-10-11T07:35:15.450Z,12.60
2022-10-11T07:40:17.332Z,12.70
2022-10-11T07:45:19.230Z,12.80
2022-10-11T07:50:21.121Z,12.80
2022-10-11T07:55:22.869Z,12.80
2022-10-11T08:00:24.674Z,12.80
2022-10-11T08:05:26.678Z,12.90
2022-10-11T08:10:28.765Z,12.90
2022-10-11T08:15:30.564Z,13.00
2022-10-11T08:20:33.274Z,13.10
2022-10-11T08:25:43.982Z,13.30
2022-10-11T08:30:55.087Z,13.50
2022-10-11T08:35:57.465Z,13.60
2022-10-11T08:41:00.736Z,13.80
2022-10-11T08:46:05.005Z,13.90
2022-10-11T08:51:34.194Z,14.00
2022-10-11T08:56:39.759Z,14.10
2022-10-11T09:01:56.886Z,14.20
2022-10-11T09:07:17.446Z,14.30
2022-10-11T09:12:34.239Z,14.40
2022-10-11T09:17:56.581Z,14.50
2022-10-11T09:23:15.128Z,14.60
2022-10-11T09:28:22.881Z,14.70
2022-10-11T09:33:38.880Z,14.80
2022-10-11T09:38:45.945Z,15.00
2022-10-11T09:43:51.369Z,15.10
2022-10-11T09:48:56.451Z,15.20
2022-10-11T09:54:04.868Z,15.30
2022-10-11T09:59:27.237Z,15.50
2022-10-11T10:04:29.075Z,15.70
2022-10-11T10:09:31.089Z,16.10
2022-10-11T10:14:32.910Z,16.30
2022-10-11T10:19:56.141Z,16.40
2022-10-11T10:25:01.817Z,16.50
2022-10-11T10:30:09.833Z,16.60
2022-10-11T10:35:33.544Z,16.50
2022-10-11T10:40:41.306Z,16.40
2022-10-11T10:46:11.998Z,16.30
2022-10-11T10:51:32.192Z,16.30
2022-10-11T10:56:43.384Z,16.20
2022-10-11T11:01:52.312Z,16.20
2022-10-11T11:06:58.130Z,16.20
2022-10-11T11:12:15.165Z,16.10
2022-10-11T11:17:25.802Z,16.10
2022-10-11T11:22:55.940Z,16.10
2022-10-11T11:28:12.743Z,16.00
2022-10-11T11:33:21.205Z,16.00
2022-10-11T11:38:47.716Z,16.10
2022-10-11T11:43:57.140Z,16.10
2022-10-11T11:49:02.622Z,16.00
2022-10-11T11:54:21.749Z,16.00
2022-10-11T11:59:29.916Z,15.80
2022-10-11T12:04:38.774Z,15.80
2022-10-11T12:09:43.594Z,15.80
2022-10-11T12:14:45.426Z,15.90
2022-10-11T12:20:08.169Z,15.90
2022-10-11T12:25:11.216Z,15.90
2022-10-11T12:30:42.594Z,16.00
2022-10-11T12:36:22.285Z,16.00
2022-10-11T12:41:50.052Z,16.00
2022-10-11T12:46:53.655Z,16.00
2022-10-11T12:52:03.049Z,16.10
2022-10-11T12:57:29.752Z,16.10
2022-10-11T13:02:44.579Z,16.30
2022-10-11T13:07:46.800Z,16.30
2022-10-11T13:12:49.308Z,16.20
2022-10-11T13:17:54.218Z,16.20
2022-10-11T13:22:57.177Z,16.20
2022-10-11T13:28:01.697Z,16.10
2022-10-11T13:33:08.667Z,16.00
2022-10-11T13:38:37.061Z,16.00
2022-10-11T13:43:40.658Z,15.90
2022-10-11T13:48:42.536Z,15.90
2022-10-11T13:54:16.779Z,15.90
2022-10-11T13:59:24.631Z,15.90
2022-10-11T14:04:29.698Z,15.90
2022-10-11T14:09:38.578Z,16.00
2022-10-11T14:14:42.803Z,16.20
2022-10-11T14:19:46.806Z,16.20
2022-10-11T14:24:48.901Z,16.20
2022-10-11T14:30:19.847Z,16.20
2022-10-11T14:35:27.452Z,16.10
2022-10-11T14:40:31.514Z,15.90
2022-10-11T14:45:33.307Z,15.80
2022-10-11T14:50:51.728Z,15.70
2022-10-11T14:55:53.934Z,15.60
2022-10-11T15:00:55.730Z,15.60
2022-10-11T15:05:57.562Z,15.50
2022-10-11T15:10:59.311Z,15.40
2022-10-11T15:16:03.223Z,15.30
2022-10-11T15:21:05.566Z,15.20
2022-10-11T15:26:07.866Z,15.20
2022-10-11T15:31:11.218Z,15.10
2022-10-11T15:36:16.425Z,15.00
2022-10-11T15:41:20.160Z,14.90
2022-10-11T15:46:22.788Z,14.90
2022-10-11T15:51:24.629Z,14.80
2022-10-11T15:56:29.330Z,14.60
2022-10-11T16:01:34.877Z,14.50
2022-10-11T16:06:36.785Z,14.40
2022-10-11T16:11:38.700Z,14.30
2022-10-11T16:16:40.440Z,14.30
2022-10-11T16:21:42.187Z,14.10
2022-10-11T16:26:44.097Z,14.00
2022-10-11T16:31:46.185Z,13.90
2022-10-11T16:36:47.935Z,13.90
2022-10-11T16:41:49.717Z,13.70
2022-10-11T16:46:51.943Z,13.60
2022-10-11T16:51:55.920Z,13.50
2022-10-11T16:56:59.389Z,13.50
2022-10-11T17:02:01.216Z,13.40
2022-10-11T17:07:04.174Z,13.30
2022-10-11T17:12:06.570Z,13.20
2022-10-11T17:17:10.010Z,13.20
2022-10-11T17:22:13.613Z,13.10
2022-10-11T17:27:15.428Z,13.00
2022-10-11T17:32:17.448Z,12.90
2022-10-11T17:37:19.205Z,12.90
2022-10-11T17:42:21.010Z,12.90
2022-10-11T17:47:22.993Z,12.80
2022-10-11T17:52:24.865Z,12.70
2022-10-11T17:57:26.615Z,12.60
2022-10-11T18:02:28.383Z,12.50
2022-10-11T18:07:30.174Z,12.40
2022-10-11T18:12:33.876Z,12.20
2022-10-11T18:17:35.734Z,12.20
2022-10-11T18:22:37.535Z,12.00
2022-10-11T18:27:39.330Z,12.10
2022-10-11T18:32:47.192Z,12.00
2022-10-11T18:37:55.464Z,11.90
2022-10-11T18:42:59.443Z,11.90
2022-10-11T18:48:01.637Z,11.80
2022-10-11T18:53:06.958Z,11.70
2022-10-11T18:58:09.099Z,11.80
2022-10-11T19:03:11.126Z,11.70
2022-10-11T19:08:16.730Z,11.60
2022-10-11T19:13:18.701Z,11.50
2022-10-11T19:18:21.060Z,11.40
2022-10-11T19:23:23.661Z,11.40
2022-10-11T19:28:25.663Z,11.40
2022-10-11T19:33:29.069Z,11.40
2022-10-11T19:38:32.893Z,11.40
2022-10-11T19:43:35.275Z,11.40
2022-10-11T19:48:41.393Z,11.50
2022-10-11T19:53:44.614Z,11.40
2022-10-11T19:58:49.209Z,11.50
2022-10-11T20:03:54.792Z,11.60
2022-10-11T20:09:23.969Z,11.60
2022-10-11T20:14:20.463Z,11.60
2022-10-11T20:19:27.753Z,11.70
2022-10-11T20:24:36.305Z,11.70
2022-10-11T20:29:39.388Z,11.70
2022-10-11T20:34:41.416Z,11.80
2022-10-11T20:39:43.672Z,11.80
2022-10-11T20:44:47.618Z,11.90
2022-10-11T20:49:49.422Z,11.90
2022-10-11T20:54:51.170Z,11.90
2022-10-11T20:59:52.947Z,11.90
2022-10-11T21:04:54.945Z,12.00
2022-10-11T21:09:56.702Z,12.00
2022-10-11T21:14:58.449Z,12.10
2022-10-11T21:20:01.947Z,12.10
2022-10-11T21:25:04.296Z,12.10
2022-10-11T21:30:06.598Z,12.00
2022-10-11T21:35:08.409Z,12.10
2022-10-11T21:40:10.205Z,12.10
2022-10-11T21:45:12.243Z,12.00
2022-10-11T21:50:15.722Z,12.10
2022-10-11T21:55:17.525Z,12.10
2022-10-11T22:00:19.413Z,12.10
2022-10-11T22:05:21.234Z,12.20
2022-10-11T22:10:23.015Z,12.20
2022-10-11T22:15:24.788Z,12.10
2022-10-11T22:20:27.378Z,12.20
2022-10-11T22:25:30.630Z,12.10
2022-10-11T22:30:32.621Z,12.10
2022-10-11T22:35:38.550Z,12.10
2022-10-11T22:40:41.585Z,12.20
2022-10-11T22:45:43.620Z,12.10
2022-10-11T22:50:45.381Z,12.10
2022-10-11T22:55:47.811Z,12.20
2022-10-11T23:00:49.641Z,12.20
2022-10-11T23:05:58.168Z,12.20
2022-10-11T23:11:07.512Z,12.20
2022-10-11T23:16:11.582Z,12.20
2022-10-11T23:21:13.414Z,12.20
2022-10-11T23:26:16.781Z,12.20
2022-10-11T23:31:18.764Z,12.20
2022-10-11T23:36:23.432Z,12.20
2022-10-11T23:41:28.729Z,12.20
2022-10-11T23:46:30.515Z,12.10
2022-10-11T23:51:32.284Z,12.20
2022-10-11T23:56:34.066Z,12.20
